createdAt,value
2017-07-26T00:00:39.646Z,98.20
2017-07-26T00:03:07.101Z,98.20
2017-07-26T00:05:34.528Z,98.20
2017-07-26T00:08:01.987Z,98.20
2017-07-26T00:10:29.427Z,98.20
2017-07-26T00:12:57.272Z,98.20
2017-07-26T00:15:25.024Z,98.20
2017-07-26T00:17:52.471Z,98.20
2017-07-26T00:20:19.916Z,98.20
2017-07-26T00:22:47.700Z,98.20
2017-07-26T00:25:15.132Z,98.20
2017-07-26T00:27:42.574Z,98.20
2017-07-26T00:30:10.259Z,98.20
2017-07-26T00:32:37.707Z,98.20
2017-07-26T00:35:05.151Z,98.20
2017-07-26T00:37:32.940Z,98.20
2017-07-26T00:40:00.380Z,98.20
2017-07-26T00:42:27.820Z,98.20
2017-07-26T00:44:55.284Z,98.20
2017-07-26T00:47:22.741Z,98.20
2017-07-26T00:49:50.184Z,98.20
2017-07-26T00:52:17.712Z,98.20
2017-07-26T00:54:45.545Z,98.20
2017-07-26T00:57:12.988Z,98.20
2017-07-26T00:59:40.441Z,98.20
2017-07-26T01:02:07.888Z,98.20
2017-07-26T01:04:35.328Z,98.20
2017-07-26T01:07:02.976Z,98.20
2017-07-26T01:09:30.415Z,98.20
2017-07-26T01:11:57.861Z,98.20
2017-07-26T01:14:25.706Z,98.20
2017-07-26T01:16:53.152Z,98.20
2017-07-26T01:19:20.597Z,98.20
2017-07-26T01:21:48.080Z,98.20
2017-07-26T01:24:15.520Z,98.20
2017-07-26T01:26:43.788Z,98.20
2017-07-26T01:29:11.249Z,98.20
2017-07-26T01:31:38.714Z,98.20
2017-07-26T01:34:06.140Z,98.20
2017-07-26T01:36:33.909Z,98.20
2017-07-26T01:39:01.352Z,98.20
2017-07-26T01:41:28.792Z,98.20
2017-07-26T01:43:56.580Z,98.20
2017-07-26T01:46:24.024Z,98.20
2017-07-26T01:48:51.475Z,98.20
2017-07-26T01:51:18.948Z,98.20
2017-07-26T01:53:46.383Z,98.20
2017-07-26T01:56:13.832Z,98.20
2017-07-26T01:58:41.395Z,98.20
2017-07-26T02:01:08.836Z,98.20
2017-07-26T02:03:36.278Z,98.20
2017-07-26T02:06:03.766Z,98.20
2017-07-26T02:08:31.201Z,98.20
2017-07-26T02:10:58.649Z,98.20
2017-07-26T02:13:26.349Z,98.20
2017-07-26T02:15:53.796Z,98.20
2017-07-26T02:18:21.235Z,98.20
2017-07-26T02:20:49.088Z,98.20
2017-07-26T02:23:16.517Z,98.20
2017-07-26T02:25:44.356Z,98.20
2017-07-26T02:28:11.828Z,98.20
2017-07-26T02:30:39.268Z,98.20
2017-07-26T02:33:06.710Z,98.20
2017-07-26T02:35:34.175Z,98.20
2017-07-26T02:38:01.619Z,98.20
2017-07-26T02:40:29.068Z,98.20
2017-07-26T02:42:56.536Z,98.20
2017-07-26T02:45:23.977Z,98.20
2017-07-26T02:47:51.411Z,98.20
2017-07-26T02:50:18.972Z,98.20
2017-07-26T02:52:46.412Z,98.20
2017-07-26T02:55:13.857Z,98.20
2017-07-26T02:57:41.437Z,98.20
2017-07-26T03:00:08.884Z,98.20
2017-07-26T03:02:36.321Z,98.20
2017-07-26T03:05:04.133Z,98.20
2017-07-26T03:07:31.568Z,98.20
2017-07-26T03:09:59.012Z,98.20
2017-07-26T03:12:26.505Z,98.20
2017-07-26T03:14:53.943Z,98.20
2017-07-26T03:17:21.384Z,98.20
2017-07-26T03:19:49.176Z,98.20
2017-07-26T03:22:16.625Z,98.20
2017-07-26T03:24:44.081Z,98.20
2017-07-26T03:27:11.545Z,98.20
2017-07-26T03:29:38.992Z,98.20
2017-07-26T03:32:06.441Z,98.20
2017-07-26T03:34:34.208Z,98.20
2017-07-26T03:37:01.652Z,98.20
2017-07-26T03:39:29.102Z,98.20
2017-07-26T03:41:56.600Z,98.20
2017-07-26T03:44:24.444Z,98.20
2017-07-26T03:46:51.889Z,98.20
2017-07-26T03:49:19.373Z,98.20
2017-07-26T03:51:47.212Z,98.20
2017-07-26T03:54:14.655Z,98.20
2017-07-26T03:56:42.399Z,98.20
2017-07-26T03:59:10.033Z,98.20
2017-07-26T04:01:37.868Z,98.20
2017-07-26T04:04:05.611Z,98.20
2017-07-26T04:06:33.060Z,98.20
2017-07-26T04:09:00.504Z,98.20
2017-07-26T04:11:27.984Z,98.20
2017-07-26T04:13:55.428Z,98.20
2017-07-26T04:16:22.873Z,98.20
2017-07-26T04:18:50.355Z,98.20
2017-07-26T04:21:17.808Z,98.20
2017-07-26T04:23:45.264Z,98.20
2017-07-26T04:26:12.824Z,98.20
2017-07-26T04:28:40.267Z,98.20
2017-07-26T04:31:07.720Z,98.20
2017-07-26T04:33:35.370Z,98.20
2017-07-26T04:36:02.822Z,98.20
2017-07-26T04:38:30.272Z,98.20
2017-07-26T04:40:57.752Z,98.20
2017-07-26T04:43:25.203Z,98.20
2017-07-26T04:45:52.648Z,98.20
2017-07-26T04:48:20.124Z,98.20
2017-07-26T04:50:47.572Z,98.20
2017-07-26T04:53:15.025Z,98.20
2017-07-26T04:55:42.511Z,98.20
2017-07-26T04:58:10.369Z,98.20
2017-07-26T05:00:37.817Z,98.20
2017-07-26T05:03:05.284Z,98.20
2017-07-26T05:05:33.134Z,98.20
2017-07-26T05:08:00.581Z,98.20
2017-07-26T05:10:28.342Z,98.20
2017-07-26T05:12:55.787Z,98.20
2017-07-26T05:15:23.236Z,98.20
2017-07-26T05:17:50.729Z,98.20
2017-07-26T05:20:18.567Z,98.20
2017-07-26T05:22:46.016Z,98.20
2017-07-26T05:25:13.489Z,98.20
2017-07-26T05:27:40.931Z,98.20
2017-07-26T05:30:08.380Z,98.20
2017-07-26T05:32:36.045Z,98.20
2017-07-26T05:35:03.678Z,98.20
2017-07-26T05:37:31.121Z,98.20
2017-07-26T05:39:58.572Z,98.20
2017-07-26T05:42:26.053Z,98.20
2017-07-26T05:44:53.499Z,98.20
2017-07-26T05:47:20.939Z,98.20
2017-07-26T05:49:48.702Z,98.20
2017-07-26T05:52:16.144Z,98.20
2017-07-26T05:54:43.589Z,98.20
2017-07-26T05:57:11.416Z,98.20
2017-07-26T05:59:38.892Z,98.20
2017-07-26T06:02:06.349Z,98.20
2017-07-26T06:04:33.828Z,98.20
2017-07-26T06:07:01.281Z,98.20
2017-07-26T06:09:28.727Z,98.20
2017-07-26T06:11:56.206Z,98.20
2017-07-26T06:14:23.651Z,98.20
2017-07-26T06:16:51.094Z,98.20
2017-07-26T06:19:18.816Z,98.20
2017-07-26T06:21:46.264Z,98.20
2017-07-26T06:24:13.708Z,98.20
2017-07-26T06:26:41.383Z,98.20
2017-07-26T06:29:08.832Z,98.20
2017-07-26T06:31:36.296Z,98.20
2017-07-26T06:34:03.812Z,98.20
2017-07-26T06:36:31.260Z,98.20
2017-07-26T06:38:58.711Z,98.20
2017-07-26T06:41:26.190Z,98.20
2017-07-26T06:43:53.642Z,98.20
2017-07-26T06:46:21.080Z,98.20
2017-07-26T06:48:48.660Z,98.20
2017-07-26T06:51:16.115Z,98.20
2017-07-26T06:53:43.560Z,98.20
2017-07-26T06:56:11.055Z,98.20
2017-07-26T06:58:38.499Z,98.20
2017-07-26T07:01:05.944Z,98.20
2017-07-26T07:03:33.420Z,98.20
2017-07-26T07:06:00.868Z,98.20
2017-07-26T07:08:28.315Z,98.20
2017-07-26T07:10:55.889Z,98.20
2017-07-26T07:13:23.339Z,98.20
2017-07-26T07:15:50.787Z,98.20
2017-07-26T07:18:18.360Z,98.20
2017-07-26T07:20:45.821Z,98.20
2017-07-26T07:23:13.268Z,98.20
2017-07-26T07:25:40.756Z,98.20
2017-07-26T07:28:08.205Z,98.20
2017-07-26T07:30:35.657Z,98.20
2017-07-26T07:33:03.515Z,98.20
2017-07-26T07:35:30.960Z,98.20
2017-07-26T07:37:58.408Z,98.20
2017-07-26T07:40:25.888Z,98.20
2017-07-26T07:42:53.331Z,98.20
2017-07-26T07:45:20.780Z,98.20
2017-07-26T07:47:48.616Z,98.20
2017-07-26T07:50:16.064Z,98.20
2017-07-26T07:52:43.512Z,98.20
2017-07-26T07:55:10.988Z,98.20
2017-07-26T07:57:38.443Z,98.20
2017-07-26T08:00:05.891Z,98.20
2017-07-26T08:02:33.572Z,98.20
2017-07-26T08:05:01.020Z,98.20
2017-07-26T08:07:28.463Z,98.20
2017-07-26T08:09:56.028Z,98.20
2017-07-26T08:12:23.476Z,98.20
2017-07-26T08:14:50.925Z,98.20
2017-07-26T08:17:18.703Z,98.20
2017-07-26T08:19:46.155Z,98.20
2017-07-26T08:22:13.608Z,98.20
2017-07-26T08:24:41.388Z,98.20
2017-07-26T08:27:08.837Z,98.20
2017-07-26T08:29:36.284Z,98.20
2017-07-26T08:32:03.849Z,98.20
2017-07-26T08:34:31.302Z,98.20
2017-07-26T08:36:58.744Z,98.20
2017-07-26T08:39:26.419Z,98.20
2017-07-26T08:41:53.868Z,98.20
2017-07-26T08:44:21.322Z,98.20
2017-07-26T08:46:49.064Z,98.20
2017-07-26T08:49:16.496Z,98.20
2017-07-26T08:51:43.941Z,98.20
2017-07-26T08:54:11.986Z,98.20
2017-07-26T08:56:39.425Z,98.20
2017-07-26T08:59:06.877Z,98.20
2017-07-26T09:01:34.355Z,98.20
2017-07-26T09:04:01.803Z,98.20
2017-07-26T09:06:29.244Z,98.20
2017-07-26T09:08:56.728Z,98.20
2017-07-26T09:11:24.171Z,98.20
2017-07-26T09:13:51.620Z,98.20
2017-07-26T09:16:19.100Z,98.20
2017-07-26T09:18:46.940Z,98.20
2017-07-26T09:21:14.386Z,98.20
2017-07-26T09:23:42.144Z,98.20
2017-07-26T09:26:10.642Z,98.20
2017-07-26T09:28:38.084Z,98.20
2017-07-26T09:31:05.846Z,98.20
2017-07-26T09:33:33.284Z,98.20
2017-07-26T09:36:00.896Z,98.20
2017-07-26T09:38:28.760Z,98.20
2017-07-26T09:40:56.596Z,98.20
2017-07-26T09:43:24.044Z,98.20
2017-07-26T09:45:51.700Z,98.20
2017-07-26T09:48:19.141Z,98.20
2017-07-26T09:50:46.584Z,98.20
2017-07-26T09:53:14.047Z,98.20
2017-07-26T09:55:41.492Z,98.20
2017-07-26T09:58:08.924Z,98.20
2017-07-26T10:00:36.640Z,98.20
2017-07-26T10:03:04.076Z,98.20
2017-07-26T10:05:31.519Z,98.20
2017-07-26T10:07:59.291Z,98.20
2017-07-26T10:10:26.734Z,98.20
2017-07-26T10:12:54.189Z,98.20
2017-07-26T10:15:21.686Z,98.20
2017-07-26T10:17:49.120Z,98.20
2017-07-26T10:20:16.566Z,98.20
2017-07-26T10:22:45.623Z,98.20
2017-07-26T10:25:13.065Z,98.20
2017-07-26T10:27:40.504Z,98.20
2017-07-26T10:30:08.864Z,96.30
2017-07-26T10:32:36.312Z,96.30
2017-07-26T10:35:03.757Z,92.40
2017-07-26T10:37:31.433Z,94.50
2017-07-26T10:39:58.864Z,94.30
2017-07-26T10:42:26.300Z,95.60
2017-07-26T10:44:53.772Z,97.10
2017-07-26T10:47:21.218Z,95.90
2017-07-26T10:49:48.656Z,96.10
2017-07-26T10:52:16.220Z,96.60
2017-07-26T10:54:43.651Z,93.90
2017-07-26T10:57:11.088Z,92.00
2017-07-26T10:59:38.539Z,94.30
2017-07-26T11:02:05.979Z,93.00
2017-07-26T11:04:33.420Z,93.10
2017-07-26T11:07:00.887Z,93.70
2017-07-26T11:09:28.332Z,94.00
2017-07-26T11:11:55.772Z,90.70
2017-07-26T11:14:23.240Z,90.40
2017-07-26T11:16:50.686Z,90.90
2017-07-26T11:19:18.121Z,92.20
2017-07-26T11:21:45.580Z,91.70
2017-07-26T11:24:13.028Z,90.40
2017-07-26T11:26:40.464Z,88.30
2017-07-26T11:29:08.321Z,88.00
2017-07-26T11:31:36.161Z,86.30
2017-07-26T11:34:03.596Z,86.30
2017-07-26T11:36:31.056Z,88.30
2017-07-26T11:38:58.495Z,87.30
2017-07-26T11:41:25.938Z,87.10
2017-07-26T11:43:53.632Z,84.30
2017-07-26T11:46:21.078Z,81.40
2017-07-26T11:48:48.517Z,79.20
2017-07-26T11:51:16.078Z,79.90
2017-07-26T11:53:43.516Z,85.10
2017-07-26T11:56:10.952Z,86.10
2017-07-26T11:58:38.795Z,79.80
2017-07-26T12:01:06.235Z,79.80
2017-07-26T12:03:33.676Z,84.50
2017-07-26T12:06:01.391Z,84.90
2017-07-26T12:08:29.224Z,83.60
2017-07-26T12:10:56.656Z,83.60
2017-07-26T12:13:24.142Z,80.80
2017-07-26T12:15:51.584Z,81.50
2017-07-26T12:18:19.019Z,79.70
2017-07-26T12:20:46.488Z,79.30
2017-07-26T12:23:13.920Z,79.10
2017-07-26T12:25:41.366Z,78.30
2017-07-26T12:28:08.832Z,74.90
2017-07-26T12:30:36.268Z,71.10
2017-07-26T12:33:03.712Z,69.40
2017-07-26T12:35:31.428Z,69.10
2017-07-26T12:37:58.868Z,68.10
2017-07-26T12:40:26.309Z,68.60
2017-07-26T12:42:53.875Z,68.90
2017-07-26T12:45:21.314Z,67.90
2017-07-26T12:47:48.751Z,66.60
2017-07-26T12:50:16.460Z,64.40
2017-07-26T12:52:43.900Z,64.60
2017-07-26T12:55:11.343Z,65.30
2017-07-26T12:57:38.813Z,63.90
2017-07-26T13:00:06.253Z,64.50
2017-07-26T13:02:33.693Z,65.30
2017-07-26T13:05:01.401Z,65.80
2017-07-26T13:07:28.837Z,69.00
2017-07-26T13:09:56.275Z,68.90
2017-07-26T13:12:23.758Z,66.20
2017-07-26T13:14:51.184Z,65.20
2017-07-26T13:17:18.632Z,64.90
2017-07-26T13:19:46.348Z,63.60
2017-07-26T13:22:13.796Z,68.40
2017-07-26T13:24:41.240Z,74.80
2017-07-26T13:27:08.707Z,75.80
2017-07-26T13:29:36.151Z,69.20
2017-07-26T13:32:03.589Z,65.10
2017-07-26T13:34:31.363Z,64.20
2017-07-26T13:36:58.808Z,63.10
2017-07-26T13:39:26.420Z,61.50
2017-07-26T13:41:54.547Z,60.50
2017-07-26T13:44:21.987Z,60.50
2017-07-26T13:46:49.433Z,59.30
2017-07-26T13:49:16.900Z,60.50
2017-07-26T13:51:44.343Z,61.40
2017-07-26T13:54:11.781Z,63.40
2017-07-26T13:56:39.248Z,71.20
2017-07-26T13:59:06.684Z,75.60
2017-07-26T14:01:34.115Z,77.90
2017-07-26T14:04:02.266Z,66.30
2017-07-26T14:06:29.704Z,66.30
2017-07-26T14:08:57.137Z,64.10
2017-07-26T14:11:24.780Z,67.40
2017-07-26T14:13:52.215Z,73.30
2017-07-26T14:16:20.058Z,79.20
2017-07-26T14:18:47.712Z,79.20
2017-07-26T14:21:15.164Z,79.50
2017-07-26T14:23:42.595Z,80.60
2017-07-26T14:26:10.068Z,77.40
2017-07-26T14:28:37.537Z,72.70
2017-07-26T14:31:04.981Z,67.70
2017-07-26T14:33:32.645Z,68.90
2017-07-26T14:36:00.085Z,69.70
2017-07-26T14:38:27.529Z,72.10
2017-07-26T14:40:55.218Z,67.00
2017-07-26T14:43:22.655Z,66.20
2017-07-26T14:45:50.105Z,70.00
2017-07-26T14:48:17.572Z,71.60
2017-07-26T14:50:45.012Z,74.60
2017-07-26T14:53:12.460Z,74.90
2017-07-26T14:55:40.561Z,76.00
2017-07-26T14:58:07.992Z,77.80
2017-07-26T15:00:35.432Z,79.40
2017-07-26T15:03:02.894Z,82.40
2017-07-26T15:05:30.344Z,83.00
2017-07-26T15:07:57.784Z,83.80
2017-07-26T15:10:25.245Z,85.20
2017-07-26T15:12:52.680Z,81.30
2017-07-26T15:15:20.512Z,81.60
2017-07-26T15:17:48.004Z,81.60
2017-07-26T15:20:15.839Z,82.40
2017-07-26T15:22:43.285Z,82.40
2017-07-26T15:25:10.743Z,83.00
2017-07-26T15:27:38.192Z,84.40
2017-07-26T15:30:05.637Z,83.70
2017-07-26T15:32:33.408Z,85.50
2017-07-26T15:35:00.848Z,86.20
2017-07-26T15:37:28.284Z,86.60
2017-07-26T15:39:56.187Z,86.80
2017-07-26T15:42:23.623Z,87.50
2017-07-26T15:44:51.059Z,88.30
2017-07-26T15:47:18.773Z,88.10
2017-07-26T15:49:46.215Z,86.80
2017-07-26T15:52:13.644Z,89.30
2017-07-26T15:54:41.404Z,90.60
2017-07-26T15:57:08.861Z,90.50
2017-07-26T15:59:36.296Z,88.10
2017-07-26T16:02:03.772Z,89.70
2017-07-26T16:04:31.211Z,90.70
2017-07-26T16:06:58.656Z,92.30
2017-07-26T16:09:26.143Z,93.20
2017-07-26T16:11:53.581Z,95.00
2017-07-26T16:14:21.025Z,95.70
2017-07-26T16:16:48.501Z,96.10
2017-07-26T16:19:15.950Z,96.90
2017-07-26T16:21:43.388Z,97.20
2017-07-26T16:24:10.940Z,97.30
2017-07-26T16:26:38.381Z,97.10
2017-07-26T16:29:06.220Z,98.20
2017-07-26T16:31:33.692Z,98.20
2017-07-26T16:34:01.530Z,98.20
2017-07-26T16:36:28.973Z,98.20
2017-07-26T16:38:56.437Z,98.20
2017-07-26T16:41:23.877Z,98.10
2017-07-26T16:43:51.345Z,98.20
2017-07-26T16:46:18.821Z,98.20
2017-07-26T16:48:46.265Z,98.20
2017-07-26T16:51:13.712Z,98.20
2017-07-26T16:53:41.276Z,98.20
2017-07-26T16:56:08.748Z,98.20
2017-07-26T16:58:36.201Z,98.20
2017-07-26T17:01:03.757Z,98.20
2017-07-26T17:03:31.197Z,98.20
2017-07-26T17:05:58.652Z,98.20
2017-07-26T17:08:26.134Z,98.20
2017-07-26T17:10:53.980Z,98.20
2017-07-26T17:13:21.432Z,98.20
2017-07-26T17:15:48.907Z,98.20
2017-07-26T17:18:16.759Z,98.20
2017-07-26T17:20:44.211Z,98.20
2017-07-26T17:23:11.696Z,98.20
2017-07-26T17:25:39.558Z,98.20
2017-07-26T17:28:06.999Z,98.20
2017-07-26T17:30:35.143Z,98.20
2017-07-26T17:33:02.601Z,98.20
2017-07-26T17:35:30.052Z,98.20
2017-07-26T17:37:57.535Z,98.20
2017-07-26T17:40:24.977Z,98.10
2017-07-26T17:42:52.426Z,97.70
2017-07-26T17:45:19.877Z,97.00
2017-07-26T17:47:47.325Z,96.90
2017-07-26T17:50:14.767Z,97.50
2017-07-26T17:52:42.429Z,98.00
2017-07-26T17:55:09.866Z,98.20
2017-07-26T17:57:37.308Z,98.20
2017-07-26T18:00:04.785Z,98.20
2017-07-26T18:02:32.212Z,98.20
2017-07-26T18:04:59.656Z,98.20
2017-07-26T18:07:27.117Z,98.20
2017-07-26T18:09:54.980Z,98.20
2017-07-26T18:12:22.431Z,98.20
2017-07-26T18:14:50.467Z,98.20
2017-07-26T18:17:17.913Z,98.20
2017-07-26T18:19:45.358Z,98.20
2017-07-26T18:22:13.019Z,98.20
2017-07-26T18:24:40.464Z,98.20
2017-07-26T18:27:07.924Z,98.20
2017-07-26T18:29:35.416Z,98.20
2017-07-26T18:32:03.688Z,98.20
2017-07-26T18:34:31.161Z,98.20
2017-07-26T18:36:58.616Z,98.20
2017-07-26T18:39:26.071Z,98.20
2017-07-26T18:41:53.507Z,98.20
2017-07-26T18:44:20.977Z,98.20
2017-07-26T18:46:48.421Z,98.20
2017-07-26T18:49:15.871Z,98.20
2017-07-26T18:51:43.520Z,98.20
2017-07-26T18:54:10.961Z,98.20
2017-07-26T18:56:38.405Z,98.20
2017-07-26T18:59:06.189Z,98.20
2017-07-26T19:01:33.646Z,98.20
2017-07-26T19:04:01.092Z,98.20
2017-07-26T19:06:28.580Z,98.20
2017-07-26T19:08:56.163Z,98.20
2017-07-26T19:11:23.684Z,98.20
2017-07-26T19:13:51.165Z,98.20
2017-07-26T19:16:19.021Z,98.20
2017-07-26T19:18:46.481Z,98.20
2017-07-26T19:21:14.235Z,98.20
2017-07-26T19:23:41.663Z,98.20
2017-07-26T19:26:09.104Z,98.20
2017-07-26T19:28:36.585Z,98.20
2017-07-26T19:31:04.041Z,98.20
2017-07-26T19:33:31.485Z,98.20
2017-07-26T19:35:59.057Z,98.20
2017-07-26T19:38:26.505Z,98.20
2017-07-26T19:40:53.957Z,98.20
2017-07-26T19:43:21.411Z,98.20
2017-07-26T19:45:48.856Z,98.20
2017-07-26T19:48:16.312Z,98.20
2017-07-26T19:50:43.976Z,98.20
2017-07-26T19:53:11.432Z,98.20
2017-07-26T19:55:38.874Z,98.20
2017-07-26T19:58:06.357Z,98.20
2017-07-26T20:00:33.808Z,98.20
2017-07-26T20:03:01.258Z,98.20
2017-07-26T20:05:28.741Z,98.20
2017-07-26T20:07:56.189Z,98.20
2017-07-26T20:10:23.633Z,98.20
2017-07-26T20:12:51.190Z,98.20
2017-07-26T20:15:18.641Z,98.20
2017-07-26T20:17:46.096Z,98.20
2017-07-26T20:20:13.861Z,98.20
2017-07-26T20:22:41.305Z,98.20
2017-07-26T20:25:08.775Z,98.20
2017-07-26T20:27:36.248Z,98.20
2017-07-26T20:30:03.693Z,98.20
2017-07-26T20:32:31.142Z,98.20
2017-07-26T20:34:58.612Z,98.20
2017-07-26T20:37:26.056Z,98.20
2017-07-26T20:39:53.513Z,98.20
2017-07-26T20:42:21.152Z,98.20
2017-07-26T20:44:48.594Z,98.20
2017-07-26T20:47:16.072Z,98.20
2017-07-26T20:49:43.536Z,98.20
2017-07-26T20:52:10.980Z,98.20
2017-07-26T20:54:38.451Z,98.20
2017-07-26T20:57:05.908Z,98.20
2017-07-26T20:59:33.360Z,98.20
2017-07-26T21:02:00.800Z,98.20
2017-07-26T21:04:28.547Z,98.20
2017-07-26T21:06:55.984Z,98.20
2017-07-26T21:09:23.437Z,98.20
2017-07-26T21:11:50.921Z,98.20
2017-07-26T21:14:18.360Z,98.20
2017-07-26T21:16:45.807Z,98.20
2017-07-26T21:19:13.354Z,98.20
2017-07-26T21:21:40.791Z,98.20
2017-07-26T21:24:08.235Z,98.20
2017-07-26T21:26:36.114Z,98.20
2017-07-26T21:29:03.561Z,98.20
2017-07-26T21:31:31.004Z,98.20
2017-07-26T21:33:59.140Z,98.20
2017-07-26T21:36:26.597Z,98.20
2017-07-26T21:38:54.035Z,98.20
2017-07-26T21:41:21.496Z,98.20
2017-07-26T21:43:48.976Z,98.20
2017-07-26T21:46:16.416Z,98.20
2017-07-26T21:48:43.882Z,98.20
2017-07-26T21:51:11.330Z,98.20
2017-07-26T21:53:38.775Z,98.20
2017-07-26T21:56:06.238Z,98.20
2017-07-26T21:58:33.685Z,98.20
2017-07-26T22:01:01.128Z,98.20
2017-07-26T22:03:28.816Z,98.20
2017-07-26T22:05:56.283Z,98.20
2017-07-26T22:08:23.723Z,98.20
2017-07-26T22:10:51.276Z,98.20
2017-07-26T22:13:18.716Z,98.20
2017-07-26T22:15:46.159Z,98.20
2017-07-26T22:18:13.952Z,98.20
2017-07-26T22:20:41.398Z,98.20
2017-07-26T22:23:08.839Z,98.20
2017-07-26T22:25:36.500Z,98.20
2017-07-26T22:28:03.947Z,98.20
2017-07-26T22:30:31.400Z,98.20
2017-07-26T22:32:58.896Z,98.20
2017-07-26T22:35:26.343Z,98.20
2017-07-26T22:37:53.796Z,98.20
2017-07-26T22:40:21.264Z,98.20
2017-07-26T22:42:48.713Z,98.20
2017-07-26T22:45:16.161Z,98.20
2017-07-26T22:47:43.640Z,98.20
2017-07-26T22:50:11.485Z,98.20
2017-07-26T22:52:38.936Z,98.20
2017-07-26T22:55:06.493Z,98.20
2017-07-26T22:57:33.939Z,98.20
2017-07-26T23:00:01.380Z,98.20
2017-07-26T23:02:28.995Z,98.20
2017-07-26T23:04:56.439Z,98.20
2017-07-26T23:07:23.885Z,98.20
2017-07-26T23:09:51.348Z,98.20
2017-07-26T23:12:19.185Z,98.20
2017-07-26T23:14:46.629Z,98.20
2017-07-26T23:17:14.111Z,98.20
2017-07-26T23:19:41.555Z,98.20
2017-07-26T23:22:09.004Z,98.20
2017-07-26T23:24:36.767Z,98.20
2017-07-26T23:27:04.216Z,98.20
2017-07-26T23:29:31.660Z,98.20
2017-07-26T23:31:59.123Z,98.20
2017-07-26T23:34:26.564Z,98.20
2017-07-26T23:36:54.017Z,98.20
2017-07-26T23:39:21.807Z,98.20
2017-07-26T23:41:49.247Z,98.20
2017-07-26T23:44:16.692Z,98.20
2017-07-26T23:46:44.187Z,98.20
2017-07-26T23:49:11.627Z,98.20
2017-07-26T23:51:39.073Z,98.20
2017-07-26T23:54:06.843Z,98.20
2017-07-26T23:56:34.374Z,98.20
2017-07-26T23:59:01.800Z,98.20
